Observation data for Silverton on 01/20/2019      Previous  Date       Current Mesonet Observations  Soil Data  Daily Summary Page  Observations in Plain Language
KSVS 200600Z 14007KT M04/M06 A3029 RMK A01 T10361060  RH  084%=      5-min Rain = 0
KSVS 200605Z 14007KT M04/M06 A303 RMK A01 T10361063  RH  082%=      5-min Rain = 0
KSVS 200610Z 13006KT M04/M07 A3031 RMK A01 T10391067  RH  081%=      5-min Rain = 0
KSVS 200615Z 13008KT M04/M07 A3029 RMK A01 T10421068  RH  082%=      5-min Rain = 0
KSVS 200620Z 12007KT M04/M07 A3029 RMK A01 T10411067  RH  083%=      5-min Rain = 0
KSVS 200625Z 12007KT M05/M07 A3029 RMK A01 T10461072  RH  082%=      5-min Rain = 0
KSVS 200630Z 12009KT M05/M07 A3029 RMK A01 T10471073  RH  082%=      5-min Rain = 0
KSVS 200635Z 12009KT M05/M07 A3029 RMK A01 T10451073  RH  081%=      5-min Rain = 0
KSVS 200640Z 14009KT M05/M08 A3028 RMK A01 T10451075  RH  079%=      5-min Rain = 0
KSVS 200645Z 14008KT M04/M08 A3029 RMK A01 T10441075  RH  079%=      5-min Rain = 0
KSVS 200650Z 14009KT M04/M07 A3028 RMK A01 T10411074  RH  078%=      5-min Rain = 0
KSVS 200655Z 14009KT M04/M07 A3028 RMK A01 T10351070  RH  077%=      5-min Rain = 0
KSVS 200700Z 14009KT M03/M07 A3028 RMK A01 T10321070  RH  075%=      5-min Rain = 0
KSVS 200705Z 13007KT M03/M07 A3029 RMK A01 T10341072  RH  075%=      5-min Rain = 0
KSVS 200710Z 14008KT M04/M07 A3029 RMK A01 T10361073  RH  075%=      5-min Rain = 0
KSVS 200715Z 14008KT M04/M07 A3029 RMK A01 T10351073  RH  075%=      5-min Rain = 0
KSVS 200720Z 15009KT M03/M07 A3029 RMK A01 T10341074  RH  074%=      5-min Rain = 0
KSVS 200725Z 15009KT M04/M07 A3029 RMK A01 T10351074  RH  074%=      5-min Rain = 0
KSVS 200730Z 15008KT M04/M08 A3029 RMK A01 T10371076  RH  074%=      5-min Rain = 0
KSVS 200735Z 15008KT M04/M08 A3029 RMK A01 T10401078  RH  075%=      5-min Rain = 0
KSVS 200740Z 15007KT M04/M08 A3029 RMK A01 T10421080  RH  075%=      5-min Rain = 0
KSVS 200745Z 15008KT M05/M08 A3029 RMK A01 T10461082  RH  076%=      5-min Rain = 0
KSVS 200750Z 14008KT M05/M08 A3028 RMK A01 T10461082  RH  076%=      5-min Rain = 0
KSVS 200755Z 15009KT M04/M08 A3028 RMK A01 T10441081  RH  076%=      5-min Rain = 0
KSVS 200800Z 15008KT M04/M08 A3028 RMK A01 T10441080  RH  076%=      5-min Rain = 0
KSVS 200805Z 15009KT M04/M08 A3028 RMK A01 T10441079  RH  077%=      5-min Rain = 0
KSVS 200810Z 15008KT M04/M08 A3029 RMK A01 T10421078  RH  076%=      5-min Rain = 0
KSVS 200815Z 15007KT M04/M08 A3029 RMK A01 T10431079  RH  076%=      5-min Rain = 0
KSVS 200820Z 16006KT M05/M08 A3028 RMK A01 T10481082  RH  077%=      5-min Rain = 0
KSVS 200825Z 15007KT M05/M08 A3028 RMK A01 T10521084  RH  078%=      5-min Rain = 0
KSVS 200830Z 15008KT M05/M08 A3028 RMK A01 T10481081  RH  078%=      5-min Rain = 0
KSVS 200835Z 15008KT M05/M08 A3028 RMK A01 T10451080  RH  076%=      5-min Rain = 0
KSVS 200840Z 14008KT M04/M08 A3028 RMK A01 T10441080  RH  076%=      5-min Rain = 0
KSVS 200845Z 15007KT M04/M08 A3028 RMK A01 T10421081  RH  074%=      5-min Rain = 0
KSVS 200850Z 15007KT M04/M08 A3028 RMK A01 T10421081  RH  074%=      5-min Rain = 0
KSVS 200855Z 15006KT M04/M08 A3028 RMK A01 T10441083  RH  075%=      5-min Rain = 0
KSVS 200900Z 16006KT M05/M09 A3028 RMK A01 T10481085  RH  075%=      5-min Rain = 0
KSVS 200905Z 16008KT M05/M08 A3028 RMK A01 T10461083  RH  076%=      5-min Rain = 0
KSVS 200910Z 17008KT M05/M08 A3028 RMK A01 T10451083  RH  075%=      5-min Rain = 0
KSVS 200915Z 17007KT M05/M08 A3028 RMK A01 T10461083  RH  075%=      5-min Rain = 0
KSVS 200920Z 17007KT M05/M08 A3029 RMK A01 T10461082  RH  076%=      5-min Rain = 0
KSVS 200925Z 17008KT M05/M08 A3029 RMK A01 T10471082  RH  077%=      5-min Rain = 0
KSVS 200930Z 17007KT M05/M08 A3028 RMK A01 T10491082  RH  077%=      5-min Rain = 0
KSVS 200935Z 17008KT M05/M08 A3029 RMK A01 T10511084  RH  077%=      5-min Rain = 0
KSVS 200940Z 17008KT M05/M09 A3029 RMK A01 T10531085  RH  078%=      5-min Rain = 0
KSVS 200945Z 18007KT M05/M09 A3029 RMK A01 T10521085  RH  077%=      5-min Rain = 0
KSVS 200950Z 18007KT M05/M08 A3029 RMK A01 T10491084  RH  077%=      5-min Rain = 0
KSVS 200955Z 19007KT M05/M09 A3029 RMK A01 T10521088  RH  075%=      5-min Rain = 0
KSVS 201000Z 19007KT M05/M09 A3028 RMK A01 T10541085  RH  079%=      5-min Rain = 0
KSVS 201005Z 19007KT M05/M08 A3028 RMK A01 T10481081  RH  078%=      5-min Rain = 0
KSVS 201010Z 20007KT M06/M09 A3028 RMK A01 T10551087  RH  078%=      5-min Rain = 0
KSVS 201015Z 20006KT M06/M09 A3028 RMK A01 T10581088  RH  080%=      5-min Rain = 0
KSVS 201020Z 20005KT M06/M09 A3027 RMK A01 T10611088  RH  081%=      5-min Rain = 0
KSVS 201025Z 20007KT M06/M09 A3027 RMK A01 T10571085  RH  081%=      5-min Rain = 0
KSVS 201030Z 20007KT M06/M09 A3027 RMK A01 T10561086  RH  079%=      5-min Rain = 0
KSVS 201035Z 20006KT M05/M08 A3026 RMK A01 T10531083  RH  079%=      5-min Rain = 0
KSVS 201040Z 20006KT M05/M08 A3026 RMK A01 T10501082  RH  078%=      5-min Rain = 0
KSVS 201045Z 21006KT M06/M09 A3026 RMK A01 T10591089  RH  079%=      5-min Rain = 0
KSVS 201050Z 22006KT M07/M09 A3026 RMK A01 T10651091  RH  082%=      5-min Rain = 0
KSVS 201055Z 22006KT M07/M09 A3026 RMK A01 T10661090  RH  083%=      5-min Rain = 0
KSVS 201100Z 22005KT M06/M09 A3025 RMK A01 T10641087  RH  084%=      5-min Rain = 0
KSVS 201105Z 21003KT M07/M09 A3026 RMK A01 T10651088  RH  084%=      5-min Rain = 0
KSVS 201110Z 23005KT M06/M09 A3025 RMK A01 T10631086  RH  084%=      5-min Rain = 0
KSVS 201115Z 23006KT M07/M09 A3025 RMK A01 T10661088  RH  084%=      5-min Rain = 0
KSVS 201120Z 23006KT M07/M09 A3025 RMK A01 T10671089  RH  085%=      5-min Rain = 0
KSVS 201125Z 23005KT M07/M09 A3025 RMK A01 T10651085  RH  086%=      5-min Rain = 0
KSVS 201130Z 22006KT M06/M08 A3024 RMK A01 T10581079  RH  085%=      5-min Rain = 0
KSVS 201135Z 22006KT M06/M08 A3024 RMK A01 T10611083  RH  084%=      5-min Rain = 0
KSVS 201140Z 23006KT M06/M08 A3024 RMK A01 T10621083  RH  085%=      5-min Rain = 0
KSVS 201145Z 23006KT M06/M08 A3024 RMK A01 T10631084  RH  085%=      5-min Rain = 0
KSVS 201150Z 23005KT M06/M09 A3024 RMK A01 T10631085  RH  085%=      5-min Rain = 0
KSVS 201155Z 23005KT M06/M08 A3023 RMK A01 T10621084  RH  084%=      5-min Rain = 0
KSVS 201200Z 22005KT M06/M08 A3023 RMK A01 T10591083  RH  083%=      5-min Rain = 0
KSVS 201205Z 22006KT M06/M08 A3023 RMK A01 T10561081  RH  082%=      5-min Rain = 0
KSVS 201210Z 22007KT M05/M08 A3023 RMK A01 T10511078  RH  081%=      5-min Rain = 0
KSVS 201215Z 22007KT M05/M08 A3023 RMK A01 T10481078  RH  079%=      5-min Rain = 0
KSVS 201220Z 22007KT M05/M08 A3023 RMK A01 T10481079  RH  079%=      5-min Rain = 0
KSVS 201225Z 22007KT M05/M08 A3023 RMK A01 T10481079  RH  079%=      5-min Rain = 0
KSVS 201230Z 22008KT M05/M08 A3023 RMK A01 T10481079  RH  079%=      5-min Rain = 0
KSVS 201235Z 22009KT M05/M08 A3023 RMK A01 T10481079  RH  079%=      5-min Rain = 0
KSVS 201240Z 22009KT M05/M08 A3023 RMK A01 T10481079  RH  079%=      5-min Rain = 0
KSVS 201245Z 21009KT M05/M08 A3023 RMK A01 T10471079  RH  078%=      5-min Rain = 0
KSVS 201250Z 21009KT M05/M08 A3023 RMK A01 T10461079  RH  078%=      5-min Rain = 0
KSVS 201255Z 21009KT M05/M08 A3023 RMK A01 T10461079  RH  078%=      5-min Rain = 0
KSVS 201300Z 20008KT M05/M08 A3023 RMK A01 T10471079  RH  078%=      5-min Rain = 0
KSVS 201305Z 20008KT M05/M08 A3024 RMK A01 T10481080  RH  078%=      5-min Rain = 0
KSVS 201310Z 20008KT M04/M08 A3024 RMK A01 T10441079  RH  077%=      5-min Rain = 0
KSVS 201315Z 20008KT M05/M08 A3024 RMK A01 T10451080  RH  077%=      5-min Rain = 0
KSVS 201320Z 19008KT M04/M08 A3024 RMK A01 T10431080  RH  075%=      5-min Rain = 0
KSVS 201325Z 20007KT M05/M08 A3024 RMK A01 T10471082  RH  077%=      5-min Rain = 0
KSVS 201330Z 20007KT M05/M08 A3024 RMK A01 T10461081  RH  077%=      5-min Rain = 0
KSVS 201335Z 20007KT M05/M08 A3024 RMK A01 T10501084  RH  077%=      5-min Rain = 0
KSVS 201340Z 20007KT M06/M09 A3024 RMK A01 T10561086  RH  079%=      5-min Rain = 0
KSVS 201345Z 20006KT M06/M09 A3024 RMK A01 T10571085  RH  080%=      5-min Rain = 0
KSVS 201350Z 20007KT M05/M08 A3024 RMK A01 T10541083  RH  080%=      5-min Rain = 0
KSVS 201355Z 21007KT M06/M09 A3023 RMK A01 T10621091  RH  080%=      5-min Rain = 0
KSVS 201400Z 21008KT M06/M09 A3023 RMK A01 T10621087  RH  083%=      5-min Rain = 0
KSVS 201405Z 21008KT M06/M08 A3023 RMK A01 T10571081  RH  083%=      5-min Rain = 0
KSVS 201410Z 21007KT M05/M08 A3023 RMK A01 T10541080  RH  082%=      5-min Rain = 0
KSVS 201415Z 22008KT M05/M08 A3023 RMK A01 T10471077  RH  080%=      5-min Rain = 0
KSVS 201420Z 22008KT M04/M08 A3023 RMK A01 T10431076  RH  078%=      5-min Rain = 0
KSVS 201425Z 23008KT M04/M07 A3023 RMK A01 T10411074  RH  078%=      5-min Rain = 0
KSVS 201430Z 23008KT M04/M07 A3023 RMK A01 T10361071  RH  077%=      5-min Rain = 0
KSVS 201435Z 23009KT M03/M07 A3023 RMK A01 T10331068  RH  077%=      5-min Rain = 0
KSVS 201440Z 23009KT M03/M07 A3023 RMK A01 T10281066  RH  076%=      5-min Rain = 0
KSVS 201445Z 23010KT M02/M06 A3023 RMK A01 T10221062  RH  074%=      5-min Rain = 0
KSVS 201450Z 23010KT M02/M06 A3023 RMK A01 T10181058  RH  074%=      5-min Rain = 0
KSVS 201455Z 23011KT M01/M05 A3023 RMK A01 T10141054  RH  074%=      5-min Rain = 0
KSVS 201500Z 23011KT M01/M05 A3022 RMK A01 T10101052  RH  074%=      5-min Rain = 0
KSVS 201505Z 23012KT M01/M05 A3022 RMK A01 T10081050  RH  073%=      5-min Rain = 0
KSVS 201510Z 23012KT M01/M05 A3022 RMK A01 T10071050  RH  073%=      5-min Rain = 0
KSVS 201515Z 23013KT M01/M05 A3022 RMK A01 T10051049  RH  072%=      5-min Rain = 0
KSVS 201520Z 23011KT M00/M05 A3022 RMK A01 T10021046  RH  073%=      5-min Rain = 0
KSVS 201525Z 23012KT 00/05 A3022 RMK A01 T00000-46  RH  071%=      5-min Rain = 0
KSVS 201530Z 23013KT 00/M05 A3022 RMK A01 T00021045  RH  071%=      5-min Rain = 0
KSVS 201535Z 23013G18KT 01/M04 A3022 RMK A01 T00051044  RH  070%=      5-min Rain = 0
KSVS 201540Z 22013KT 01/M04 A3022 RMK A01 T00081044  RH  068%=      5-min Rain = 0
KSVS 201545Z 22013KT 01/M04 A3022 RMK A01 T00111043  RH  067%=      5-min Rain = 0
KSVS 201550Z 22015KT 01/M04 A3022 RMK A01 T00141044  RH  066%=      5-min Rain = 0
KSVS 201555Z 22016KT 02/M04 A3021 RMK A01 T00171044  RH  064%=      5-min Rain = 0
KSVS 201600Z 22016KT 02/M04 A3021 RMK A01 T00181044  RH  063%=      5-min Rain = 0
KSVS 201605Z 22017KT 02/M04 A3021 RMK A01 T00211044  RH  062%=      5-min Rain = 0
KSVS 201610Z 22016G21KT 03/M04 A3021 RMK A01 T00271041  RH  061%=      5-min Rain = 0
KSVS 201615Z 22016G21KT 03/M04 A3021 RMK A01 T00311041  RH  059%=      5-min Rain = 0
KSVS 201620Z 22018KT 03/M04 A3021 RMK A01 T00321042  RH  058%=      5-min Rain = 0
KSVS 201625Z 22017G22KT 04/M04 A3021 RMK A01 T00381040  RH  057%=      5-min Rain = 0
KSVS 201630Z 22017G22KT 05/M04 A3021 RMK A01 T00461039  RH  055%=      5-min Rain = 0
KSVS 201635Z 22017G22KT 05/M04 A302 RMK A01 T00501038  RH  053%=      5-min Rain = 0
KSVS 201640Z 22018G23KT 06/M04 A302 RMK A01 T00551037  RH  052%=      5-min Rain = 0
KSVS 201645Z 22019G24KT 06/M04 A302 RMK A01 T00581038  RH  050%=      5-min Rain = 0
KSVS 201650Z 22017G22KT 06/M04 A302 RMK A01 T00601039  RH  049%=      5-min Rain = 0
KSVS 201655Z 21018G23KT 06/M04 A302 RMK A01 T00631039  RH  048%=      5-min Rain = 0
KSVS 201700Z 22019G24KT 07/M04 A3019 RMK A01 T00651039  RH  048%=      5-min Rain = 0
KSVS 201705Z 22018KT 07/M04 A3019 RMK A01 T00701038  RH  046%=      5-min Rain = 0
KSVS 201710Z 22019KT 08/M04 A3019 RMK A01 T00751037  RH  045%=      5-min Rain = 0
KSVS 201715Z 22017KT 08/M04 A3019 RMK A01 T00821035  RH  044%=      5-min Rain = 0
KSVS 201720Z 21019KT 08/M04 A3019 RMK A01 T00841036  RH  043%=      5-min Rain = 0
KSVS 201725Z 21018KT 09/M04 A3019 RMK A01 T00881035  RH  042%=      5-min Rain = 0
KSVS 201730Z 21018G23KT 09/M04 A3019 RMK A01 T00891035  RH  041%=      5-min Rain = 0
KSVS 201735Z 21018KT 09/M04 A3019 RMK A01 T00891035  RH  042%=      5-min Rain = 0
KSVS 201740Z 22016G21KT 09/M03 A3019 RMK A01 T00911034  RH  041%=      5-min Rain = 0
KSVS 201745Z 22017KT 10/M03 A3018 RMK A01 T00961034  RH  040%=      5-min Rain = 0
KSVS 201750Z 22017KT 10/M04 A3018 RMK A01 T00971035  RH  039%=      5-min Rain = 0
KSVS 201755Z 21019KT 10/M04 A3018 RMK A01 T00991035  RH  039%=      5-min Rain = 0
KSVS 201800Z 21018G24KT 10/M03 A3017 RMK A01 T01041034  RH  038%=      5-min Rain = 0
KSVS 201805Z 22016KT 11/M03 A3017 RMK A01 T01081033  RH  037%=      5-min Rain = 0
KSVS 201810Z 22017KT 11/M03 A3017 RMK A01 T01111034  RH  036%=      5-min Rain = 0
KSVS 201815Z 22017G22KT 11/M04 A3017 RMK A01 T01111035  RH  036%=      5-min Rain = 0
KSVS 201820Z 22016KT 12/M04 A3016 RMK A01 T01151035  RH  035%=      5-min Rain = 0
KSVS 201825Z 22016G22KT 12/M04 A3016 RMK A01 T01171036  RH  034%=      5-min Rain = 0
KSVS 201830Z 22015G20KT 12/M04 A3016 RMK A01 T01211035  RH  034%=      5-min Rain = 0
KSVS 201835Z 21015KT 12/M04 A3016 RMK A01 T01221036  RH  033%=      5-min Rain = 0
KSVS 201840Z 22016KT 13/M04 A3015 RMK A01 T01251038  RH  032%=      5-min Rain = 0
KSVS 201845Z 22014G19KT 13/M04 A3015 RMK A01 T01291035  RH  032%=      5-min Rain = 0
KSVS 201850Z 22017G22KT 13/M04 A3014 RMK A01 T01331039  RH  030%=      5-min Rain = 0
KSVS 201855Z 23016KT 14/M04 A3014 RMK A01 T01371037  RH  030%=      5-min Rain = 0
KSVS 201900Z 23015KT 14/M04 A3013 RMK A01 T01361038  RH  030%=      5-min Rain = 0
KSVS 201905Z 22016G22KT 13/M04 A3013 RMK A01 T01341040  RH  030%=      5-min Rain = 0
KSVS 201910Z 22016KT 14/M04 A3012 RMK A01 T01381041  RH  029%=      5-min Rain = 0
KSVS 201915Z 22015G20KT 14/M04 A3012 RMK A01 T01371041  RH  029%=      5-min Rain = 0
KSVS 201920Z 22014KT 14/M04 A3012 RMK A01 T01371039  RH  029%=      5-min Rain = 0
KSVS 201925Z 22014KT 14/M04 A3011 RMK A01 T01361041  RH  029%=      5-min Rain = 0
KSVS 201930Z 21013G18KT 14/M04 A3011 RMK A01 T01441039  RH  028%=      5-min Rain = 0
KSVS 201935Z 23013KT 14/M04 A3011 RMK A01 T01431043  RH  027%=      5-min Rain = 0
KSVS 201940Z 22013G18KT 14/M05 A301 RMK A01 T01381045  RH  028%=      5-min Rain = 0
KSVS 201945Z 22013G18KT 14/M04 A301 RMK A01 T01381044  RH  028%=      5-min Rain = 0
KSVS 201950Z 22014G20KT 14/M05 A301 RMK A01 T01411046  RH  027%=      5-min Rain = 0
KSVS 201955Z 23015KT 14/M05 A301 RMK A01 T01441048  RH  026%=      5-min Rain = 0
KSVS 202000Z 23013KT 15/M05 A301 RMK A01 T01481046  RH  026%=      5-min Rain = 0
KSVS 202005Z 21013KT 15/M05 A3009 RMK A01 T01511047  RH  025%=      5-min Rain = 0
KSVS 202010Z 21012KT 16/M04 A3009 RMK A01 T01591044  RH  025%=      5-min Rain = 0
KSVS 202015Z 22015G21KT 16/M05 A3009 RMK A01 T01621047  RH  024%=      5-min Rain = 0
KSVS 202020Z 23013KT 17/M05 A3009 RMK A01 T01651046  RH  023%=      5-min Rain = 0
KSVS 202025Z 22016G22KT 17/M05 A3009 RMK A01 T01681049  RH  022%=      5-min Rain = 0
KSVS 202030Z 22015G21KT 16/M05 A3009 RMK A01 T01631047  RH  023%=      5-min Rain = 0
KSVS 202035Z 21014G19KT 17/M05 A3008 RMK A01 T01721046  RH  022%=      5-min Rain = 0
KSVS 202040Z 22012G17KT 16/M05 A3008 RMK A01 T01601048  RH  024%=      5-min Rain = 0
KSVS 202045Z 21012KT 15/M05 A3008 RMK A01 T01521049  RH  025%=      5-min Rain = 0
KSVS 202050Z 22013KT 15/M05 A3008 RMK A01 T01531049  RH  025%=      5-min Rain = 0
KSVS 202055Z 22011KT 15/M05 A3008 RMK A01 T01511047  RH  025%=      5-min Rain = 0
KSVS 202100Z 22011KT 16/M05 A3008 RMK A01 T01601045  RH  024%=      5-min Rain = 0
KSVS 202105Z 23011KT 15/M05 A3007 RMK A01 T01521047  RH  025%=      5-min Rain = 0
KSVS 202110Z 23010KT 15/M05 A3007 RMK A01 T01451045  RH  027%=      5-min Rain = 0
KSVS 202115Z 22010KT 15/M04 A3007 RMK A01 T01501043  RH  026%=      5-min Rain = 0
KSVS 202120Z 23012KT 16/M04 A3007 RMK A01 T01551042  RH  025%=      5-min Rain = 0
KSVS 202125Z 22011KT 16/M04 A3007 RMK A01 T01581041  RH  025%=      5-min Rain = 0
KSVS 202130Z 20010G16KT 16/M04 A3007 RMK A01 T01601042  RH  025%=      5-min Rain = 0
KSVS 202135Z 20011KT 16/M04 A3006 RMK A01 T01611042  RH  024%=      5-min Rain = 0
KSVS 202140Z 21011G16KT 17/M04 A3007 RMK A01 T01671042  RH  024%=      5-min Rain = 0
KSVS 202145Z 22011G17KT 16/M04 A3006 RMK A01 T01611043  RH  024%=      5-min Rain = 0
KSVS 202150Z 20011KT 16/M04 A3006 RMK A01 T01581044  RH  025%=      5-min Rain = 0
KSVS 202155Z 21011KT 16/M04 A3006 RMK A01 T01601042  RH  025%=      5-min Rain = 0
KSVS 202200Z 20010KT 17/M04 A3006 RMK A01 T01661041  RH  024%=      5-min Rain = 0
KSVS 202205Z 20010KT 16/M04 A3006 RMK A01 T01621043  RH  024%=      5-min Rain = 0
KSVS 202210Z 21012KT 17/M04 A3006 RMK A01 T01651042  RH  024%=      5-min Rain = 0
KSVS 202215Z 20010G15KT 16/M04 A3006 RMK A01 T01631042  RH  024%=      5-min Rain = 0
KSVS 202220Z 19010KT 16/M04 A3005 RMK A01 T01611042  RH  025%=      5-min Rain = 0
KSVS 202225Z 20011KT 16/M04 A3005 RMK A01 T01591042  RH  025%=      5-min Rain = 0
KSVS 202230Z 19011KT 16/M04 A3005 RMK A01 T01561043  RH  025%=      5-min Rain = 0
KSVS 202235Z 19011KT 15/M04 A3005 RMK A01 T01541043  RH  026%=      5-min Rain = 0
KSVS 202240Z 19010KT 16/M04 A3005 RMK A01 T01581042  RH  025%=      5-min Rain = 0
KSVS 202245Z 19010KT 15/M04 A3005 RMK A01 T01541043  RH  026%=      5-min Rain = 0
KSVS 202250Z 19009KT 16/M04 A3005 RMK A01 T01551042  RH  026%=      5-min Rain = 0
KSVS 202255Z 18010KT 16/M04 A3005 RMK A01 T01591042  RH  025%=      5-min Rain = 0
KSVS 202300Z 19010KT 16/M04 A3005 RMK A01 T01581043  RH  025%=      5-min Rain = 0
KSVS 202305Z 19009KT 16/M04 A3004 RMK A01 T01561044  RH  025%=      5-min Rain = 0
KSVS 202310Z 19008KT 15/M04 A3004 RMK A01 T01531044  RH  026%=      5-min Rain = 0
KSVS 202315Z 18008KT 15/M04 A3004 RMK A01 T01521044  RH  026%=      5-min Rain = 0
KSVS 202320Z 18008KT 15/M04 A3004 RMK A01 T01471044  RH  026%=      5-min Rain = 0
KSVS 202325Z 18007KT 14/M04 A3004 RMK A01 T01441044  RH  027%=      5-min Rain = 0
KSVS 202330Z 17008KT 14/M04 A3004 RMK A01 T01401044  RH  028%=      5-min Rain = 0
KSVS 202335Z 17008KT 14/M05 A3004 RMK A01 T01361045  RH  028%=      5-min Rain = 0
KSVS 202340Z 17008KT 13/M05 A3004 RMK A01 T01291045  RH  030%=      5-min Rain = 0
KSVS 202345Z 17008KT 12/M04 A3004 RMK A01 T01231044  RH  031%=      5-min Rain = 0
KSVS 202350Z 17008KT 12/M04 A3004 RMK A01 T01181042  RH  032%=      5-min Rain = 0
KSVS 202355Z 17008KT 11/M04 A3004 RMK A01 T01101043  RH  034%=      5-min Rain = 0
KSVS 210000Z 16008KT 10/M04 A3003 RMK A01 T01021043  RH  036%=      5-min Rain = 0
KSVS 210005Z 16008KT 10/M04 A3003 RMK A01 T00961044  RH  037%=      5-min Rain = 0
KSVS 210010Z 16010KT 09/M05 A3003 RMK A01 T00911045  RH  038%=      5-min Rain = 0
KSVS 210015Z 16009KT 09/M05 A3003 RMK A01 T00901046  RH  038%=      5-min Rain = 0
KSVS 210020Z 15009KT 09/M05 A3003 RMK A01 T00881047  RH  038%=      5-min Rain = 0
KSVS 210025Z 15009KT 08/M05 A3003 RMK A01 T00841047  RH  039%=      5-min Rain = 0
KSVS 210030Z 15009KT 08/M05 A3003 RMK A01 T00841047  RH  039%=      5-min Rain = 0
KSVS 210035Z 15009KT 08/M05 A3003 RMK A01 T00821047  RH  040%=      5-min Rain = 0
KSVS 210040Z 15009KT 08/M05 A3003 RMK A01 T00771047  RH  041%=      5-min Rain = 0
KSVS 210045Z 15010KT 07/M05 A3003 RMK A01 T00741047  RH  042%=      5-min Rain = 0
KSVS 210050Z 16010KT 07/M05 A3003 RMK A01 T00741045  RH  043%=      5-min Rain = 0
KSVS 210055Z 16009KT 08/M05 A3003 RMK A01 T00751045  RH  042%=      5-min Rain = 0
KSVS 210100Z 16009KT 07/M05 A3004 RMK A01 T00711045  RH  044%=      5-min Rain = 0
KSVS 210105Z 15009KT 07/M05 A3004 RMK A01 T00681046  RH  044%=      5-min Rain = 0
KSVS 210110Z 15009KT 07/M05 A3004 RMK A01 T00661046  RH  045%=      5-min Rain = 0
KSVS 210115Z 14010KT 07/M05 A3004 RMK A01 T00661045  RH  045%=      5-min Rain = 0
KSVS 210120Z 15009KT 07/M04 A3003 RMK A01 T00661044  RH  046%=      5-min Rain = 0
KSVS 210125Z 14010KT 07/M04 A3003 RMK A01 T00651042  RH  046%=      5-min Rain = 0
KSVS 210130Z 14009KT 07/M04 A3003 RMK A01 T00651041  RH  047%=      5-min Rain = 0
KSVS 210135Z 14009KT 06/M04 A3003 RMK A01 T00601041  RH  048%=      5-min Rain = 0
KSVS 210140Z 14009KT 06/M04 A3003 RMK A01 T00581041  RH  049%=      5-min Rain = 0
KSVS 210145Z 14010KT 05/M04 A3003 RMK A01 T00541042  RH  050%=      5-min Rain = 0
KSVS 210150Z 14010KT 05/M04 A3003 RMK A01 T00541041  RH  051%=      5-min Rain = 0
KSVS 210155Z 15010KT 06/M04 A3003 RMK A01 T00611039  RH  049%=      5-min Rain = 0
KSVS 210200Z 15009KT 06/M04 A3003 RMK A01 T00621040  RH  048%=      5-min Rain = 0
KSVS 210205Z 15009KT 06/M04 A3003 RMK A01 T00591042  RH  049%=      5-min Rain = 0
KSVS 210210Z 15009KT 06/M04 A3003 RMK A01 T00551043  RH  049%=      5-min Rain = 0
KSVS 210215Z 16009KT 05/M04 A3002 RMK A01 T00531044  RH  050%=      5-min Rain = 0
KSVS 210220Z 16009KT 05/M05 A3002 RMK A01 T00481045  RH  051%=      5-min Rain = 0
KSVS 210225Z 17010KT 05/M04 A3002 RMK A01 T00461043  RH  053%=      5-min Rain = 0
KSVS 210230Z 17010KT 05/M04 A3002 RMK A01 T00531040  RH  051%=      5-min Rain = 0
KSVS 210235Z 16010KT 05/M04 A3002 RMK A01 T00541040  RH  051%=      5-min Rain = 0
KSVS 210240Z 16009KT 05/M04 A3002 RMK A01 T00531040  RH  051%=      5-min Rain = 0
KSVS 210245Z 16010KT 05/M04 A3001 RMK A01 T00511040  RH  052%=      5-min Rain = 0
KSVS 210250Z 16010KT 05/M04 A3001 RMK A01 T00501040  RH  052%=      5-min Rain = 0
KSVS 210255Z 16010KT 05/M04 A3001 RMK A01 T00491040  RH  053%=      5-min Rain = 0
KSVS 210300Z 16010KT 05/M04 A3001 RMK A01 T00501040  RH  052%=      5-min Rain = 0
KSVS 210305Z 16009KT 05/M04 A3001 RMK A01 T00491040  RH  053%=      5-min Rain = 0
KSVS 210310Z 16009KT 05/M04 A3001 RMK A01 T00461041  RH  054%=      5-min Rain = 0
KSVS 210315Z 16009KT 04/M04 A3001 RMK A01 T00421041  RH  055%=      5-min Rain = 0
KSVS 210320Z 17009KT 04/M04 A3001 RMK A01 T00381042  RH  056%=      5-min Rain = 0
KSVS 210325Z 17009KT 04/M04 A3001 RMK A01 T00351042  RH  057%=      5-min Rain = 0
KSVS 210330Z 17009KT 04/M04 A30 RMK A01 T00381041  RH  057%=      5-min Rain = 0
KSVS 210335Z 17010KT 04/M04 A30 RMK A01 T00431039  RH  055%=      5-min Rain = 0
KSVS 210340Z 17010KT 05/M04 A2999 RMK A01 T00501038  RH  053%=      5-min Rain = 0
KSVS 210345Z 17010KT 05/M04 A2999 RMK A01 T00511038  RH  053%=      5-min Rain = 0
KSVS 210350Z 17009KT 05/M04 A2999 RMK A01 T00491038  RH  054%=      5-min Rain = 0
KSVS 210355Z 17009KT 05/M04 A2999 RMK A01 T00461038  RH  055%=      5-min Rain = 0
KSVS 210400Z 17008KT 04/M04 A2999 RMK A01 T00431039  RH  056%=      5-min Rain = 0
KSVS 210405Z 18008KT 04/M04 A2999 RMK A01 T00381040  RH  057%=      5-min Rain = 0
KSVS 210410Z 18008KT 04/M04 A2999 RMK A01 T00351042  RH  057%=      5-min Rain = 0
KSVS 210415Z 18009KT 04/M04 A2999 RMK A01 T00361043  RH  057%=      5-min Rain = 0
KSVS 210420Z 18009KT 03/M05 A2998 RMK A01 T00301045  RH  058%=      5-min Rain = 0
KSVS 210425Z 18008KT 03/M04 A2998 RMK A01 T00311044  RH  058%=      5-min Rain = 0
KSVS 210430Z 18008KT 03/M05 A2998 RMK A01 T00301047  RH  057%=      5-min Rain = 0
KSVS 210435Z 19008KT 03/M05 A2998 RMK A01 T00251048  RH  059%=      5-min Rain = 0
KSVS 210440Z 19008KT 02/M05 A2998 RMK A01 T00191051  RH  060%=      5-min Rain = 0
KSVS 210445Z 19008KT 03/M05 A2998 RMK A01 T00281049  RH  057%=      5-min Rain = 0
KSVS 210450Z 20009KT 04/M05 A2999 RMK A01 T00351048  RH  055%=      5-min Rain = 0
KSVS 210455Z 20009KT 03/M05 A2999 RMK A01 T00311048  RH  056%=      5-min Rain = 0
KSVS 210500Z 20008KT 03/M05 A2999 RMK A01 T00291048  RH  057%=      5-min Rain = 0
KSVS 210505Z 21008KT 02/M05 A2999 RMK A01 T00241050  RH  058%=      5-min Rain = 0
KSVS 210510Z 21008KT 02/M05 A2999 RMK A01 T00191052  RH  059%=      5-min Rain = 0
KSVS 210515Z 21008KT 02/M05 A2999 RMK A01 T00171052  RH  060%=      5-min Rain = 0
KSVS 210520Z 21009KT 02/M05 A2999 RMK A01 T00191052  RH  060%=      5-min Rain = 0
KSVS 210525Z 21009KT 02/M05 A2999 RMK A01 T00221052  RH  058%=      5-min Rain = 0
KSVS 210530Z 21009KT 03/M05 A2999 RMK A01 T00251051  RH  058%=      5-min Rain = 0
KSVS 210535Z 21010KT 03/M05 A2999 RMK A01 T00261049  RH  058%=      5-min Rain = 0
KSVS 210540Z 21010KT 03/M05 A2998 RMK A01 T00281047  RH  058%=      5-min Rain = 0
KSVS 210545Z 20011KT 03/M04 A2998 RMK A01 T00341044  RH  057%=      5-min Rain = 0
KSVS 210550Z 21011KT 04/M04 A2998 RMK A01 T00391039  RH  057%=      5-min Rain = 0
KSVS 210555Z 21012KT 05/M03 A2998 RMK A01 T00481034  RH  055%=      5-min Rain = 0

Page generated in 0.0089 seconds.